Time;durP1;ratioP1;P1;durP2;ratioP2;P2;SDS_P1;SDS_P2;PMS_P1;PMS_P2;Temp;Humidity;BMP_temperature;BMP_pressure;BME280_temperature;BME280_humidity;BME280_pressure;Samples;Min_cycle;Max_cycle;Signal;HPM_P1;HPM_P2
2024/01/12 00:02:08;;;;;;;26.80;10.60;;;;;;;-128.00;-1.00;-1.00;100224;1285;1003799;-30
2024/01/12 00:04:34;;;;;;;19.60;9.50;;;;;;;-128.00;-1.00;-1.00;100191;1282;1060316;-35
2024/01/12 00:06:59;;;;;;;30.80;12.80;;;;;;;-128.00;-1.00;-1.00;100297;1281;1003921;-32
2024/01/12 00:09:25;;;;;;;31.00;14.10;;;;;;;-128.00;-1.00;-1.00;100114;1282;1003671;-32
2024/01/12 00:11:51;;;;;;;22.80;10.60;;;;;;;-128.00;-1.00;-1.00;100267;1282;1004147;-32
2024/01/12 00:14:16;;;;;;;29.70;13.10;;;;;;;-128.00;-1.00;-1.00;100414;1281;1003758;-31
2024/01/12 00:16:44;;;;;;;31.00;13.10;;;;;;;-128.00;-1.00;-1.00;100206;1282;1055080;-32
2024/01/12 00:19:11;;;;;;;30.00;12.10;;;;;;;-128.00;-1.00;-1.00;100224;1281;1003205;-30
2024/01/12 00:21:36;;;;;;;28.50;13.40;;;;;;;-128.00;-1.00;-1.00;100180;1282;1003238;-30
2024/01/12 00:24:02;;;;;;;34.80;13.90;;;;;;;-128.00;-1.00;-1.00;100287;1282;1003478;-33
2024/01/12 00:26:28;;;;;;;28.20;11.70;;;;;;;-128.00;-1.00;-1.00;100263;1282;1005004;-31
2024/01/12 00:28:53;;;;;;;27.50;12.40;;;;;;;-128.00;-1.00;-1.00;100285;1282;1004168;-31
2024/01/12 00:31:19;;;;;;;30.10;13.60;;;;;;;-128.00;-1.00;-1.00;100150;1281;1003633;-31
2024/01/12 00:33:44;;;;;;;29.40;12.30;;;;;;;-128.00;-1.00;-1.00;100206;1285;1003738;-29
2024/01/12 00:36:11;;;;;;;32.40;12.90;;;;;;;-128.00;-1.00;-1.00;100196;1282;1003445;-31
2024/01/12 00:38:36;;;;;;;32.50;13.90;;;;;;;-128.00;-1.00;-1.00;100344;1282;1004129;-30
2024/01/12 00:41:03;;;;;;;28.20;12.30;;;;;;;-128.00;-1.00;-1.00;100297;1281;1002725;-34
2024/01/12 00:43:28;;;;;;;32.70;13.50;;;;;;;-128.00;-1.00;-1.00;100346;1282;1004124;-30
2024/01/12 00:45:54;;;;;;;31.20;12.50;;;;;;;-128.00;-1.00;-1.00;100370;1282;1005170;-32
2024/01/12 00:48:20;;;;;;;32.10;14.30;;;;;;;-128.00;-1.00;-1.00;100268;1282;1003730;-31
2024/01/12 00:50:47;;;;;;;31.00;13.20;;;;;;;-128.00;-1.00;-1.00;100332;1282;1002781;-32
2024/01/12 00:53:12;;;;;;;32.40;12.80;;;;;;;-128.00;-1.00;-1.00;100221;1286;1057946;-30
2024/01/12 00:55:38;;;;;;;31.70;14.10;;;;;;;-128.00;-1.00;-1.00;100307;1282;1003312;-30
2024/01/12 00:58:04;;;;;;;27.90;13.20;;;;;;;-128.00;-1.00;-1.00;100331;1286;1004465;-32
2024/01/12 01:00:31;;;;;;;33.10;13.50;;;;;;;-128.00;-1.00;-1.00;100314;1281;1005001;-32
2024/01/12 01:02:58;;;;;;;34.10;14.20;;;;;;;-128.00;-1.00;-1.00;100304;1281;1055535;-32
2024/01/12 01:05:24;;;;;;;32.20;13.50;;;;;;;-128.00;-1.00;-1.00;100197;1283;1003955;-31
2024/01/12 01:07:49;;;;;;;36.10;13.40;;;;;;;-128.00;-1.00;-1.00;100333;1282;1004142;-35
2024/01/12 01:10:15;;;;;;;33.30;15.30;;;;;;;-128.00;-1.00;-1.00;100222;1282;1003279;-30
2024/01/12 01:12:41;;;;;;;36.10;17.10;;;;;;;-128.00;-1.00;-1.00;100243;1282;1060044;-37
2024/01/12 01:15:07;;;;;;;35.40;16.00;;;;;;;-128.00;-1.00;-1.00;100309;1281;1002425;-33
2024/01/12 01:17:32;;;;;;;;;;;;;;;-128.00;-1.00;-1.00;100386;1282;1003551;-30
2024/01/12 01:19:58;;;;;;;31.90;13.20;;;;;;;-128.00;-1.00;-1.00;100204;1286;1039341;-31
2024/01/12 01:22:24;;;;;;;33.60;13.70;;;;;;;-128.00;-1.00;-1.00;100240;1282;1004245;-31
2024/01/12 01:24:50;;;;;;;;;;;;;;;-128.00;-1.00;-1.00;100276;1282;1003273;-31
2024/01/12 01:27:15;;;;;;;36.40;14.90;;;;;;;-128.00;-1.00;-1.00;100283;1282;1004032;-31
2024/01/12 01:29:41;;;;;;;31.60;14.70;;;;;;;-128.00;-1.00;-1.00;100411;1281;1004215;-30
2024/01/12 01:32:07;;;;;;;37.60;14.60;;;;;;;-128.00;-1.00;-1.00;100258;1282;1004152;-31
2024/01/12 01:34:32;;;;;;;33.90;14.20;;;;;;;-128.00;-1.00;-1.00;100267;1282;1002976;-31
2024/01/12 01:37:02;;;;;;;41.30;16.30;;;;;;;-128.00;-1.00;-1.00;100225;1282;1003041;-31
2024/01/12 01:39:28;;;;;;;29.60;12.20;;;;;;;-128.00;-1.00;-1.00;100241;1282;1012904;-31
2024/01/12 01:41:53;;;;;;;42.00;16.20;;;;;;;-128.00;-1.00;-1.00;100254;1282;1003949;-31
2024/01/12 01:44:20;;;;;;;35.10;15.20;;;;;;;-128.00;-1.00;-1.00;100195;1282;1059529;-29
2024/01/12 01:46:45;;;;;;;;;;;;;;;-128.00;-1.00;-1.00;100203;1282;1003537;-32
2024/01/12 01:49:11;;;;;;;41.70;15.80;;;;;;;-128.00;-1.00;-1.00;100125;1281;1004800;-32
2024/01/12 01:51:37;;;;;;;41.10;14.60;;;;;;;-128.00;-1.00;-1.00;100222;1282;1003062;-32
2024/01/12 02:34:20;;;;;;;51.50;18.30;;;;;;;-102.97;19.20;20069.03;100911;1284;1600837;-31
2024/01/12 02:36:46;;;;;;;;;;;;;;;-128.00;-1.00;-1.00;100304;1282;1004051;-32
2024/01/12 02:39:12;;;;;;;46.70;16.50;;;;;;;-128.00;-1.00;-1.00;100548;1283;1003270;-30
2024/01/12 02:41:37;;;;;;;43.40;17.00;;;;;;;-128.00;-1.00;-1.00;100439;1280;1059030;-32
2024/01/12 02:44:03;;;;;;;46.60;17.40;;;;;;;-128.00;-1.00;-1.00;100645;1280;1003839;-32
2024/01/12 02:46:29;;;;;;;45.40;16.50;;;;;;;-128.00;-1.00;-1.00;100421;1280;1002571;-30
2024/01/12 02:48:54;;;;;;;43.20;16.50;;;;;;;-128.00;-1.00;-1.00;100517;1280;1039373;-32
2024/01/12 02:51:20;;;;;;;49.90;18.50;;;;;;;-128.00;-1.00;-1.00;100449;1280;1002580;-30
2024/01/12 02:53:46;;;;;;;45.00;18.00;;;;;;;-128.00;-1.00;-1.00;100470;1279;1056013;-32
2024/01/12 02:56:11;;;;;;;47.70;18.10;;;;;;;-128.00;-1.00;-1.00;100576;1280;1003813;-32
2024/01/12 02:58:37;;;;;;;45.70;16.70;;;;;;;-128.00;-1.00;-1.00;100529;1280;1003347;-30
2024/01/12 03:01:03;;;;;;;49.60;17.00;;;;;;;-128.00;-1.00;-1.00;100534;1280;1045496;-33
2024/01/12 03:03:28;;;;;;;37.90;15.10;;;;;;;-128.00;-1.00;-1.00;100386;1279;1003437;-32
2024/01/12 03:05:54;;;;;;;42.60;16.90;;;;;;;-128.00;-1.00;-1.00;100470;1280;1005092;-33
2024/01/12 03:08:20;;;;;;;;;;;;;;;-128.00;-1.00;-1.00;100626;1282;1012522;-31
2024/01/12 03:10:45;;;;;;;44.80;17.60;;;;;;;-128.00;-1.00;-1.00;100439;1284;1003814;-33
2024/01/12 03:13:11;;;;;;;46.00;16.50;;;;;;;-128.00;-1.00;-1.00;100467;1280;1002862;-30
2024/01/12 03:15:36;;;;;;;42.80;17.00;;;;;;;-128.00;-1.00;-1.00;100490;1280;1005025;-30
2024/01/12 03:18:02;;;;;;;44.80;15.40;;;;;;;-128.00;-1.00;-1.00;100441;1282;1005929;-32
2024/01/12 03:20:28;;;;;;;49.90;17.00;;;;;;;-128.00;-1.00;-1.00;100550;1279;1002743;-32
2024/01/12 03:22:53;;;;;;;46.90;17.20;;;;;;;-128.00;-1.00;-1.00;100529;1280;1003230;-31
2024/01/12 03:25:19;;;;;;;53.70;18.30;;;;;;;-128.00;-1.00;-1.00;100526;1280;1004700;-31
2024/01/12 03:27:44;;;;;;;44.30;16.90;;;;;;;-128.00;-1.00;-1.00;100410;1280;1003383;-32
2024/01/12 03:30:10;;;;;;;50.50;16.80;;;;;;;-128.00;-1.00;-1.00;100552;1281;1039138;-32
2024/01/12 03:32:36;;;;;;;;;;;;;;;-128.00;-1.00;-1.00;100495;1280;1005245;-31
2024/01/12 03:35:03;;;;;;;40.70;15.90;;;;;;;-128.00;-1.00;-1.00;100486;1280;1003204;-31
2024/01/12 03:37:28;;;;;;;42.70;15.20;;;;;;;-128.00;-1.00;-1.00;100402;1282;1058425;-32
2024/01/12 03:39:54;;;;;;;44.60;17.50;;;;;;;-128.00;-1.00;-1.00;100449;1280;1002732;-30
2024/01/12 03:42:19;;;;;;;45.70;18.20;;;;;;;-128.00;-1.00;-1.00;100420;1280;1003056;-32
2024/01/12 03:44:45;;;;;;;42.60;15.60;;;;;;;-128.00;-1.00;-1.00;100524;1280;1005804;-31
2024/01/12 03:47:11;;;;;;;45.80;16.90;;;;;;;-128.00;-1.00;-1.00;100435;1281;1058844;-30
2024/01/12 03:49:36;;;;;;;45.60;17.50;;;;;;;-128.00;-1.00;-1.00;100447;1280;1003119;-32
2024/01/12 03:52:03;;;;;;;51.60;18.10;;;;;;;-128.00;-1.00;-1.00;100420;1284;1004237;-31
2024/01/12 03:54:29;;;;;;;43.80;16.70;;;;;;;-128.00;-1.00;-1.00;100455;1280;1002749;-29
2024/01/12 03:56:55;;;;;;;42.50;16.60;;;;;;;-128.00;-1.00;-1.00;100594;1280;1003423;-30
2024/01/12 03:59:20;;;;;;;49.70;18.10;;;;;;;-128.00;-1.00;-1.00;100390;1280;1003206;-31
2024/01/12 04:01:46;;;;;;;42.00;16.40;;;;;;;-128.00;-1.00;-1.00;100435;1280;1003678;-30
2024/01/12 04:04:12;;;;;;;45.00;18.00;;;;;;;-128.00;-1.00;-1.00;100469;1280;1046240;-33
2024/01/12 04:06:39;;;;;;;39.90;15.40;;;;;;;-128.00;-1.00;-1.00;100563;1281;1002943;-30
2024/01/12 04:09:04;;;;;;;39.60;14.60;;;;;;;-128.00;-1.00;-1.00;100466;1284;1002458;-31
2024/01/12 04:11:30;;;;;;;39.60;16.20;;;;;;;-128.00;-1.00;-1.00;100426;1281;1004399;-35
2024/01/12 04:13:56;;;;;;;43.20;15.60;;;;;;;-128.00;-1.00;-1.00;100475;1280;1002944;-32
2024/01/12 04:16:21;;;;;;;41.90;16.90;;;;;;;-128.00;-1.00;-1.00;100407;1280;1046804;-30
2024/01/12 04:18:47;;;;;;;38.00;15.00;;;;;;;-128.00;-1.00;-1.00;100438;1279;1004973;-32
2024/01/12 04:21:13;;;;;;;43.20;16.60;;;;;;;-128.00;-1.00;-1.00;100443;1280;1059067;-38
2024/01/12 04:23:39;;;;;;;47.90;17.10;;;;;;;-128.00;-1.00;-1.00;100415;1280;1003331;-29
2024/01/12 04:26:05;;;;;;;42.50;16.50;;;;;;;-128.00;-1.00;-1.00;100554;1284;1002934;-32
2024/01/12 04:28:31;;;;;;;50.30;18.30;;;;;;;-128.00;-1.00;-1.00;100587;1280;1003136;-30
2024/01/12 04:30:57;;;;;;;50.10;17.60;;;;;;;-128.00;-1.00;-1.00;100462;1280;1003307;-32
2024/01/12 04:33:22;;;;;;;52.80;17.60;;;;;;;-128.00;-1.00;-1.00;100436;1280;1059353;-31
2024/01/12 04:35:48;;;;;;;44.90;16.40;;;;;;;-128.00;-1.00;-1.00;100306;1280;1003646;-31
2024/01/12 04:38:13;;;;;;;44.40;15.60;;;;;;;-128.00;-1.00;-1.00;100461;1280;1003637;-32
2024/01/12 04:40:39;;;;;;;45.00;17.10;;;;;;;-128.00;-1.00;-1.00;100554;1282;1004458;-31
2024/01/12 04:43:05;;;;;;;40.10;16.40;;;;;;;-128.00;-1.00;-1.00;100481;1280;1003437;-30
2024/01/12 04:45:30;;;;;;;43.70;16.50;;;;;;;-128.00;-1.00;-1.00;100426;1280;1003929;-31
2024/01/12 04:47:56;;;;;;;44.20;17.60;;;;;;;-128.00;-1.00;-1.00;100584;1282;1003185;-34
2024/01/12 04:50:21;;;;;;;56.40;19.50;;;;;;;-128.00;-1.00;-1.00;100388;1280;1002980;-31
2024/01/12 04:52:47;;;;;;;42.40;17.00;;;;;;;-128.00;-1.00;-1.00;100407;1282;1003905;-33
2024/01/12 04:55:13;;;;;;;44.70;17.50;;;;;;;-128.00;-1.00;-1.00;100444;1280;1003519;-31
2024/01/12 04:57:38;;;;;;;44.50;17.20;;;;;;;-128.00;-1.00;-1.00;100422;1282;1039127;-31
2024/01/12 05:00:05;;;;;;;43.50;15.70;;;;;;;-128.00;-1.00;-1.00;100493;1280;1003421;-34
2024/01/12 05:02:31;;;;;;;44.60;16.70;;;;;;;-128.00;-1.00;-1.00;100411;1282;1002795;-30
2024/01/12 05:04:57;;;;;;;44.40;17.60;;;;;;;-128.00;-1.00;-1.00;100446;1280;1003084;-29
2024/01/12 05:07:23;;;;;;;43.50;17.50;;;;;;;-128.00;-1.00;-1.00;100468;1280;1003165;-31
2024/01/12 05:09:48;;;;;;;44.80;17.30;;;;;;;-128.00;-1.00;-1.00;100492;1284;1002477;-32
2024/01/12 05:12:14;;;;;;;42.90;17.00;;;;;;;-128.00;-1.00;-1.00;100465;1280;1003505;-31
2024/01/12 05:14:40;;;;;;;44.10;16.70;;;;;;;-128.00;-1.00;-1.00;100445;1280;1003672;-30
2024/01/12 05:17:06;;;;;;;40.60;16.40;;;;;;;-128.00;-1.00;-1.00;100410;1280;1059209;-30
2024/01/12 05:19:32;;;;;;;39.90;14.90;;;;;;;-128.00;-1.00;-1.00;100452;1282;1003519;-30
2024/01/12 05:21:58;;;;;;;37.90;14.70;;;;;;;-128.00;-1.00;-1.00;100414;1280;1002449;-31
2024/01/12 05:24:23;;;;;;;36.50;14.20;;;;;;;-128.00;-1.00;-1.00;100585;1280;1003461;-30
2024/01/12 05:26:50;;;;;;;35.50;13.30;;;;;;;-128.00;-1.00;-1.00;100409;1280;1002819;-32
2024/01/12 05:29:16;;;;;;;43.20;15.50;;;;;;;-128.00;-1.00;-1.00;100396;1280;1003059;-34
2024/01/12 05:31:43;;;;;;;38.00;13.90;;;;;;;-128.00;-1.00;-1.00;100507;1281;1002947;-32
2024/01/12 05:34:09;;;;;;;33.20;13.70;;;;;;;-128.00;-1.00;-1.00;100444;1281;1003617;-30
2024/01/12 05:36:35;;;;;;;30.00;12.00;;;;;;;-128.00;-1.00;-1.00;100452;1282;1003387;-30
2024/01/12 05:39:00;;;;;;;26.00;12.20;;;;;;;-128.00;-1.00;-1.00;100416;1279;1004308;-30
2024/01/12 05:41:26;;;;;;;31.50;11.30;;;;;;;-128.00;-1.00;-1.00;100392;1280;1002812;-30
2024/01/12 05:43:52;;;;;;;29.50;11.30;;;;;;;-128.00;-1.00;-1.00;100562;1280;1012946;-32
2024/01/12 05:46:19;;;;;;;35.30;12.70;;;;;;;-128.00;-1.00;-1.00;100392;1282;1003869;-31
2024/01/12 05:48:45;;;;;;;28.10;11.10;;;;;;;-128.00;-1.00;-1.00;100423;1282;1004319;-30
2024/01/12 05:51:14;;;;;;;30.20;11.00;;;;;;;-128.00;-1.00;-1.00;100436;1282;1003123;-32
2024/01/12 05:53:39;;;;;;;29.50;10.80;;;;;;;-128.00;-1.00;-1.00;100429;1280;1003527;-31
2024/01/12 05:56:05;;;;;;;21.70;9.80;;;;;;;-128.00;-1.00;-1.00;100373;1281;1004090;-31
2024/01/12 05:58:30;;;;;;;26.00;11.20;;;;;;;-128.00;-1.00;-1.00;100366;1282;1039350;-33
2024/01/12 06:00:56;;;;;;;24.80;10.60;;;;;;;-128.00;-1.00;-1.00;100496;1280;1002940;-31
2024/01/12 06:03:22;;;;;;;27.70;10.20;;;;;;;-128.00;-1.00;-1.00;100404;1280;1004674;-32
2024/01/12 06:05:50;;;;;;;23.80;9.30;;;;;;;-128.00;-1.00;-1.00;100349;1280;1003406;-30
2024/01/12 06:08:16;;;;;;;20.30;9.30;;;;;;;-128.00;-1.00;-1.00;100488;1282;1004109;-31
2024/01/12 06:10:45;;;;;;;30.40;11.00;;;;;;;-128.00;-1.00;-1.00;100502;1281;1004101;-32
2024/01/12 06:13:10;;;;;;;31.00;9.80;;;;;;;-128.00;-1.00;-1.00;100448;1282;1047162;-33
2024/01/12 06:15:36;;;;;;;22.70;9.30;;;;;;;-128.00;-1.00;-1.00;100442;1282;1004306;-32
2024/01/12 06:18:01;;;;;;;21.30;9.10;;;;;;;-128.00;-1.00;-1.00;100413;1280;1059436;-32
2024/01/12 06:20:27;;;;;;;19.10;8.70;;;;;;;-128.00;-1.00;-1.00;100387;1282;1003093;-32
2024/01/12 06:22:53;;;;;;;29.50;10.60;;;;;;;-128.00;-1.00;-1.00;100511;1283;1003169;-32
2024/01/12 06:25:18;;;;;;;24.80;9.40;;;;;;;-128.00;-1.00;-1.00;100527;1280;1059616;-32
2024/01/12 06:27:44;;;;;;;24.50;10.40;;;;;;;-128.00;-1.00;-1.00;100416;1281;1003220;-31
2024/01/12 06:30:10;;;;;;;22.50;9.80;;;;;;;-128.00;-1.00;-1.00;100335;1281;1003103;-33
2024/01/12 06:32:38;;;;;;;;;;;;;;;-128.00;-1.00;-1.00;100497;1282;1003580;-31
2024/01/12 06:35:07;;;;;;;21.90;10.00;;;;;;;-128.00;-1.00;-1.00;100399;1280;1046680;-33
2024/01/12 06:37:33;;;;;;;25.90;10.20;;;;;;;-128.00;-1.00;-1.00;100469;1280;1060960;-32
2024/01/12 06:39:59;;;;;;;25.30;9.50;;;;;;;-128.00;-1.00;-1.00;100413;1280;1002671;-30
2024/01/12 06:42:25;;;;;;;28.60;10.70;;;;;;;-128.00;-1.00;-1.00;100422;1282;1013085;-31
2024/01/12 06:44:50;;;;;;;24.80;11.30;;;;;;;-128.00;-1.00;-1.00;100435;1281;1003712;-31
2024/01/12 06:47:16;;;;;;;22.70;10.90;;;;;;;-128.00;-1.00;-1.00;100384;1280;1004280;-30
2024/01/12 06:49:43;;;;;;;27.20;10.00;;;;;;;-128.00;-1.00;-1.00;100405;1282;1002720;-32
2024/01/12 06:52:09;;;;;;;19.70;8.50;;;;;;;-128.00;-1.00;-1.00;100448;1280;1012996;-31
2024/01/12 06:54:34;;;;;;;;;;;;;;;-128.00;-1.00;-1.00;100506;1280;1002499;-29
2024/01/12 06:57:00;;;;;;;22.40;10.20;;;;;;;-128.00;-1.00;-1.00;100465;1282;1003236;-32
2024/01/12 06:59:26;;;;;;;25.00;10.70;;;;;;;-128.00;-1.00;-1.00;100518;1279;1055209;-31
2024/01/12 07:01:51;;;;;;;24.80;9.70;;;;;;;-128.00;-1.00;-1.00;100442;1282;1003039;-35
2024/01/12 07:04:17;;;;;;;27.70;10.90;;;;;;;-128.00;-1.00;-1.00;100496;1280;1003521;-30
2024/01/12 07:06:42;;;;;;;27.70;10.30;;;;;;;-128.00;-1.00;-1.00;100405;1281;1002989;-30
2024/01/12 07:09:12;;;;;;;24.70;10.20;;;;;;;-128.00;-1.00;-1.00;100572;1280;1004618;-30
2024/01/12 07:11:42;;;;;;;23.00;8.70;;;;;;;-128.00;-1.00;-1.00;100358;1282;1058839;-32
2024/01/12 07:14:08;;;;;;;30.10;9.40;;;;;;;-128.00;-1.00;-1.00;100529;1281;1012548;-33
2024/01/12 07:16:34;;;;;;;29.90;11.60;;;;;;;-128.00;-1.00;-1.00;100442;1283;1003744;-30
2024/01/12 07:19:01;;;;;;;25.30;10.20;;;;;;;-128.00;-1.00;-1.00;100382;1280;1004700;-32
2024/01/12 07:21:26;;;;;;;22.50;10.20;;;;;;;-128.00;-1.00;-1.00;100403;1282;1003676;-30
2024/01/12 07:23:52;;;;;;;23.40;10.10;;;;;;;-128.00;-1.00;-1.00;100400;1281;1003882;-32
2024/01/12 07:26:17;;;;;;;19.60;9.50;;;;;;;-128.00;-1.00;-1.00;100630;1280;1004262;-34
2024/01/12 07:28:43;;;;;;;21.30;9.10;;;;;;;-128.00;-1.00;-1.00;100577;1282;1003434;-32
2024/01/12 07:31:08;;;;;;;24.20;9.70;;;;;;;-128.00;-1.00;-1.00;100522;1279;1003840;-32
2024/01/12 07:33:34;;;;;;;24.80;8.90;;;;;;;-128.00;-1.00;-1.00;100403;1285;1003260;-31
2024/01/12 07:35:59;;;;;;;22.10;8.80;;;;;;;-128.00;-1.00;-1.00;100434;1280;1003061;-31
2024/01/12 07:38:25;;;;;;;25.50;9.90;;;;;;;-128.00;-1.00;-1.00;100490;1284;1004204;-31
2024/01/12 07:40:50;;;;;;;23.70;9.30;;;;;;;-128.00;-1.00;-1.00;100465;1282;1002848;-33
2024/01/12 07:43:16;;;;;;;16.60;8.60;;;;;;;-128.00;-1.00;-1.00;100468;1280;1003053;-32
2024/01/12 07:45:41;;;;;;;29.10;11.40;;;;;;;-128.00;-1.00;-1.00;100444;1280;1002896;-31
2024/01/12 07:48:10;;;;;;;22.60;9.40;;;;;;;-128.00;-1.00;-1.00;100476;1281;1003471;-34
2024/01/12 07:50:36;;;;;;;27.30;11.10;;;;;;;-128.00;-1.00;-1.00;100582;1282;1046273;-35
2024/01/12 07:53:02;;;;;;;27.30;11.70;;;;;;;-128.00;-1.00;-1.00;100493;1280;1003290;-31
2024/01/12 07:55:27;;;;;;;31.10;12.00;;;;;;;-128.00;-1.00;-1.00;100425;1280;1004704;-32
2024/01/12 07:57:53;;;;;;;31.60;12.90;;;;;;;-128.00;-1.00;-1.00;100411;1280;1003709;-32
2024/01/12 08:00:19;;;;;;;32.70;12.80;;;;;;;-128.00;-1.00;-1.00;100389;1280;1003481;-31
2024/01/12 08:02:45;;;;;;;30.70;12.50;;;;;;;-128.00;-1.00;-1.00;100566;1280;1003860;-32
2024/01/12 08:05:10;;;;;;;28.40;12.40;;;;;;;-128.00;-1.00;-1.00;100444;1279;1056119;-30
2024/01/12 08:07:37;;;;;;;30.00;12.00;;;;;;;-128.00;-1.00;-1.00;100463;1284;1003880;-32
2024/01/12 08:10:03;;;;;;;31.90;13.20;;;;;;;-128.00;-1.00;-1.00;100498;1282;1003473;-32
2024/01/12 08:12:29;;;;;;;30.30;13.20;;;;;;;-128.00;-1.00;-1.00;100411;1282;1002737;-31
2024/01/12 08:14:55;;;;;;;;;;;;;;;-128.00;-1.00;-1.00;100490;1280;1003165;-31
2024/01/12 08:17:20;;;;;;;30.20;11.90;;;;;;;-128.00;-1.00;-1.00;100467;1280;1003265;-33
2024/01/12 08:19:47;;;;;;;30.00;12.50;;;;;;;-128.00;-1.00;-1.00;100340;1280;1058033;-32
2024/01/12 08:22:13;;;;;;;34.40;12.90;;;;;;;-128.00;-1.00;-1.00;100466;1282;1004024;-30
2024/01/12 08:24:40;;;;;;;37.10;14.10;;;;;;;-128.00;-1.00;-1.00;100388;1284;1003119;-32
2024/01/12 08:27:05;;;;;;;32.00;13.70;;;;;;;-128.00;-1.00;-1.00;100473;1281;1004665;-30
2024/01/12 08:29:31;;;;;;;32.40;12.90;;;;;;;-128.00;-1.00;-1.00;100471;1280;1055375;-29
2024/01/12 08:31:58;;;;;;;27.60;11.10;;;;;;;-128.00;-1.00;-1.00;100436;1280;1004454;-32
2024/01/12 08:34:25;;;;;;;29.20;11.70;;;;;;;-128.00;-1.00;-1.00;100456;1282;1039071;-32
2024/01/12 08:36:51;;;;;;;28.80;11.50;;;;;;;-128.00;-1.00;-1.00;100450;1281;1003016;-32
2024/01/12 08:39:17;;;;;;;;;;;;;;;-128.00;-1.00;-1.00;100495;1280;1002788;-33
2024/01/12 08:41:43;;;;;;;30.10;12.00;;;;;;;-128.00;-1.00;-1.00;100470;1280;1002759;-31
2024/01/12 08:44:08;;;;;;;25.80;11.00;;;;;;;-128.00;-1.00;-1.00;100418;1280;1003861;-31
2024/01/12 08:46:34;;;;;;;35.60;13.90;;;;;;;-128.00;-1.00;-1.00;100417;1282;1038882;-33
2024/01/12 08:49:00;;;;;;;31.40;12.40;;;;;;;-128.00;-1.00;-1.00;100388;1281;1003026;-31
2024/01/12 08:51:26;;;;;;;;;;;;;;;-128.00;-1.00;-1.00;100427;1281;1003088;-33
2024/01/12 08:53:51;;;;;;;27.50;11.40;;;;;;;-128.00;-1.00;-1.00;100357;1282;1058622;-32
2024/01/12 08:56:17;;;;;;;25.30;11.80;;;;;;;-128.00;-1.00;-1.00;100441;1281;1002869;-33
2024/01/12 08:58:43;;;;;;;21.90;9.90;;;;;;;-128.00;-1.00;-1.00;100499;1282;1046490;-34
2024/01/12 09:01:09;;;;;;;25.50;11.00;;;;;;;-128.00;-1.00;-1.00;100522;1280;1003189;-31
2024/01/12 09:03:34;;;;;;;30.00;11.00;;;;;;;-128.00;-1.00;-1.00;100413;1280;1003257;-33
2024/01/12 09:06:00;;;;;;;31.30;10.80;;;;;;;-128.00;-1.00;-1.00;100357;1282;1003272;-33
2024/01/12 09:08:26;;;;;;;28.50;9.50;;;;;;;-128.00;-1.00;-1.00;100416;1282;1003085;-32
2024/01/12 09:10:52;;;;;;;26.00;12.00;;;;;;;-128.00;-1.00;-1.00;100432;1280;1060624;-30
2024/01/12 09:13:18;;;;;;;;;;;;;;;-128.00;-1.00;-1.00;100564;1282;1004280;-32
2024/01/12 09:15:43;;;;;;;28.50;10.30;;;;;;;-128.00;-1.00;-1.00;100402;1282;1003228;-32
2024/01/12 09:18:09;;;;;;;18.80;7.80;;;;;;;-128.00;-1.00;-1.00;100413;1281;1039264;-32
2024/01/12 09:20:35;;;;;;;23.50;9.40;;;;;;;-128.00;-1.00;-1.00;100366;1282;1005727;-32
2024/01/12 09:23:01;;;;;;;28.30;9.10;;;;;;;-128.00;-1.00;-1.00;100280;1282;1002717;-33
2024/01/12 09:25:27;;;;;;;21.40;7.70;;;;;;;-128.00;-1.00;-1.00;100393;1282;1003028;-33
2024/01/12 09:27:52;;;;;;;19.30;6.90;;;;;;;-128.00;-1.00;-1.00;100432;1280;1013519;-31
2024/01/12 09:30:20;;;;;;;14.20;6.10;;;;;;;-128.00;-1.00;-1.00;100382;1280;1003390;-31
2024/01/12 09:32:46;;;;;;;16.00;6.50;;;;;;;-128.00;-1.00;-1.00;100455;1280;1002915;-30
2024/01/12 09:35:12;;;;;;;;;;;;;;;-128.00;-1.00;-1.00;100409;1282;1005275;-31
2024/01/12 09:37:38;;;;;;;17.10;6.60;;;;;;;-128.00;-1.00;-1.00;100443;1284;1002799;-35
2024/01/12 09:40:04;;;;;;;15.50;6.00;;;;;;;-128.00;-1.00;-1.00;100435;1282;1003272;-33
2024/01/12 09:42:31;;;;;;;15.30;5.40;;;;;;;-128.00;-1.00;-1.00;100453;1284;1003359;-31
2024/01/12 09:44:57;;;;;;;14.80;7.10;;;;;;;-128.00;-1.00;-1.00;100429;1282;1004007;-33
2024/01/12 09:47:22;;;;;;;14.60;5.60;;;;;;;-128.00;-1.00;-1.00;100434;1281;1002896;-36
2024/01/12 09:49:49;;;;;;;10.00;5.00;;;;;;;-128.00;-1.00;-1.00;100377;1280;1058295;-32
2024/01/12 09:52:15;;;;;;;14.00;5.70;;;;;;;-128.00;-1.00;-1.00;100393;1281;1004187;-30
2024/01/12 09:54:40;;;;;;;14.00;5.20;;;;;;;-128.00;-1.00;-1.00;100430;1283;1004642;-34
2024/01/12 09:57:07;;;;;;;12.60;5.50;;;;;;;-128.00;-1.00;-1.00;100468;1282;1060930;-31
2024/01/12 09:59:33;;;;;;;14.10;6.20;;;;;;;-128.00;-1.00;-1.00;100409;1280;1003128;-33
2024/01/12 10:01:58;;;;;;;13.30;5.50;;;;;;;-128.00;-1.00;-1.00;100453;1282;1003014;-33
2024/01/12 10:04:24;;;;;;;22.10;7.80;;;;;;;-128.00;-1.00;-1.00;100416;1282;1003192;-31
2024/01/12 10:06:50;;;;;;;16.70;6.70;;;;;;;-128.00;-1.00;-1.00;100392;1284;1046118;-32
2024/01/12 10:09:17;;;;;;;11.00;5.00;;;;;;;-128.00;-1.00;-1.00;100422;1281;1003801;-33
2024/01/12 10:11:43;;;;;;;16.30;6.60;;;;;;;-128.00;-1.00;-1.00;100365;1281;1004121;-33
2024/01/12 10:14:08;;;;;;;16.30;7.50;;;;;;;-128.00;-1.00;-1.00;100417;1281;1003504;-31
2024/01/12 10:16:34;;;;;;;17.40;7.60;;;;;;;-128.00;-1.00;-1.00;100411;1281;1003770;-31
2024/01/12 10:18:59;;;;;;;20.70;7.00;;;;;;;-128.00;-1.00;-1.00;100426;1282;1047026;-32
2024/01/12 10:21:25;;;;;;;13.80;6.60;;;;;;;-128.00;-1.00;-1.00;100478;1282;1003263;-31
2024/01/12 10:24:03;;;;;;;18.00;6.80;;;;;;;-128.00;-1.00;-1.00;100393;1282;1002704;-30
2024/01/12 10:26:29;;;;;;;15.40;6.40;;;;;;;-128.00;-1.00;-1.00;100427;1282;1012446;-30
2024/01/12 10:28:55;;;;;;;15.50;6.40;;;;;;;-128.00;-1.00;-1.00;100365;1280;1003194;-31
2024/01/12 10:31:20;;;;;;;19.90;7.50;;;;;;;-128.00;-1.00;-1.00;100461;1280;1003425;-32
2024/01/12 10:33:46;;;;;;;23.30;9.10;;;;;;;-128.00;-1.00;-1.00;100185;1281;1056696;-33
2024/01/12 10:36:17;;;;;;;17.30;7.80;;;;;;;-128.00;-1.00;-1.00;100387;1281;1003930;-30
2024/01/12 10:38:42;;;;;;;19.10;8.20;;;;;;;-128.00;-1.00;-1.00;100455;1280;1011817;-32
2024/01/12 10:41:08;;;;;;;16.10;7.20;;;;;;;-128.00;-1.00;-1.00;100479;1284;1003130;-32
2024/01/12 10:43:36;;;;;;;14.20;6.50;;;;;;;-128.00;-1.00;-1.00;100365;1282;1062615;-30
2024/01/12 10:46:11;;;;;;;18.70;8.60;;;;;;;-128.00;-1.00;-1.00;100450;1282;1055247;-30
2024/01/12 10:48:53;;;;;;;19.20;8.00;;;;;;;-128.00;-1.00;-1.00;100379;1284;1058683;-31
2024/01/12 10:51:19;;;;;;;27.10;10.10;;;;;;;-128.00;-1.00;-1.00;100373;1280;1012398;-32
2024/01/12 10:54:00;;;;;;;16.70;7.00;;;;;;;-128.00;-1.00;-1.00;100372;1282;1003108;-32
2024/01/12 10:56:25;;;;;;;16.90;7.70;;;;;;;-128.00;-1.00;-1.00;100406;1282;1046708;-33
2024/01/12 10:58:51;;;;;;;17.00;6.80;;;;;;;-128.00;-1.00;-1.00;100386;1282;1002986;-32
2024/01/12 11:01:17;;;;;;;20.10;9.00;;;;;;;-128.00;-1.00;-1.00;100443;1282;1005713;-33
2024/01/12 11:03:42;;;;;;;24.00;9.20;;;;;;;-128.00;-1.00;-1.00;100522;1280;1013415;-31
2024/01/12 11:06:08;;;;;;;20.20;8.50;;;;;;;-128.00;-1.00;-1.00;100508;1282;1002999;-34
2024/01/12 11:08:34;;;;;;;21.80;8.80;;;;;;;-128.00;-1.00;-1.00;100476;1282;1003370;-32
2024/01/12 11:11:00;;;;;;;24.10;9.90;;;;;;;-128.00;-1.00;-1.00;100415;1280;1055201;-33
2024/01/12 11:13:25;;;;;;;19.70;8.90;;;;;;;-128.00;-1.00;-1.00;100394;1280;1003240;-31
2024/01/12 11:15:51;;;;;;;23.70;10.10;;;;;;;-128.00;-1.00;-1.00;100424;1282;1003198;-31
2024/01/12 11:18:19;;;;;;;19.90;8.90;;;;;;;-128.00;-1.00;-1.00;100444;1282;1046508;-31
2024/01/12 11:20:45;;;;;;;13.10;6.00;;;;;;;-128.00;-1.00;-1.00;100484;1282;1002593;-32
2024/01/12 11:23:10;;;;;;;;;;;;;;;-128.00;-1.00;-1.00;100435;1280;1003388;-31
2024/01/12 11:25:36;;;;;;;16.90;7.10;;;;;;;-128.00;-1.00;-1.00;100412;1282;1002939;-33
2024/01/12 11:28:02;;;;;;;17.40;6.50;;;;;;;-128.00;-1.00;-1.00;100472;1285;1003553;-33
2024/01/12 11:30:29;;;;;;;17.50;7.70;;;;;;;-128.00;-1.00;-1.00;100487;1283;1003612;-30
2024/01/12 11:33:01;;;;;;;18.00;9.50;;;;;;;-128.00;-1.00;-1.00;100472;1282;1003289;-35
2024/01/12 11:35:29;;;;;;;23.50;9.10;;;;;;;-128.00;-1.00;-1.00;100450;1282;1055097;-31
2024/01/12 11:38:06;;;;;;;18.70;6.60;;;;;;;-128.00;-1.00;-1.00;100429;1282;1005616;-29
2024/01/12 11:40:31;;;;;;;24.90;9.20;;;;;;;-128.00;-1.00;-1.00;100331;1285;1012211;-30
2024/01/12 11:42:59;;;;;;;25.30;8.50;;;;;;;-128.00;-1.00;-1.00;100396;1282;1003511;-32